createdAt,value
2022-11-23T00:00:47.498Z,20.60
2022-11-23T00:03:16.497Z,20.70
2022-11-23T00:05:45.559Z,20.90
2022-11-23T00:08:13.241Z,19.90
2022-11-23T00:10:41.034Z,18.87
2022-11-23T00:13:08.965Z,17.90
2022-11-23T00:15:36.625Z,22.17
2022-11-23T00:18:04.442Z,20.20
2022-11-23T00:20:32.222Z,21.00
2022-11-23T00:23:01.303Z,20.60
2022-11-23T00:25:29.595Z,19.37
2022-11-23T00:27:57.400Z,20.23
2022-11-23T00:30:25.147Z,21.33
2022-11-23T00:32:52.815Z,20.77
2022-11-23T00:35:20.703Z,19.27
2022-11-23T00:37:48.515Z,21.27
2022-11-23T00:40:17.978Z,18.60
2022-11-23T00:42:45.784Z,19.30
2022-11-23T00:45:13.543Z,19.67
2022-11-23T00:47:41.309Z,21.00
2022-11-23T00:50:09.653Z,20.57
2022-11-23T00:52:37.344Z,18.37
2022-11-23T00:55:05.711Z,20.97
2022-11-23T00:57:35.771Z,21.23
2022-11-23T01:00:03.767Z,20.07
2022-11-23T01:02:31.536Z,19.80
2022-11-23T01:04:59.297Z,19.17
2022-11-23T01:07:27.127Z,19.07
2022-11-23T01:09:54.922Z,19.70
2022-11-23T01:12:22.937Z,19.53
2022-11-23T01:14:54.113Z,19.53
2022-11-23T01:17:21.817Z,20.43
2022-11-23T01:19:49.580Z,19.27
2022-11-23T01:22:17.432Z,19.27
2022-11-23T01:24:45.179Z,18.57
2022-11-23T01:27:12.867Z,18.97
2022-11-23T01:29:40.640Z,19.47
2022-11-23T01:32:09.750Z,19.53
2022-11-23T01:34:37.603Z,19.10
2022-11-23T01:37:05.368Z,18.67
2022-11-23T01:39:33.292Z,18.27
2022-11-23T01:42:01.158Z,18.23
2022-11-23T01:44:30.938Z,18.17
2022-11-23T01:47:00.420Z,17.50
2022-11-23T01:49:34.769Z,18.87
2022-11-23T01:52:08.646Z,19.13
2022-11-23T01:54:40.811Z,18.03
2022-11-23T01:57:13.978Z,17.30
2022-11-23T01:59:41.698Z,18.40
2022-11-23T02:02:09.705Z,19.27
2022-11-23T02:04:43.255Z,18.80
2022-11-23T02:07:11.764Z,18.67
2022-11-23T02:09:40.419Z,18.03
2022-11-23T02:12:12.127Z,17.97
2022-11-23T02:14:39.873Z,18.47
2022-11-23T02:17:07.774Z,18.20
2022-11-23T02:19:48.431Z,18.17
2022-11-23T02:22:27.786Z,17.30
2022-11-23T02:24:56.588Z,18.37
2022-11-23T02:27:26.640Z,17.13
2022-11-23T02:29:55.469Z,18.67
2022-11-23T02:32:25.749Z,17.57
2022-11-23T02:34:53.486Z,17.17
2022-11-23T02:37:21.699Z,18.27
2022-11-23T02:39:51.517Z,18.30
2022-11-23T02:42:19.697Z,17.97
2022-11-23T02:44:56.740Z,16.20
2022-11-23T02:47:24.463Z,16.30
2022-11-23T02:49:54.948Z,15.50
2022-11-23T02:52:22.682Z,16.17
2022-11-23T02:54:50.437Z,17.50
2022-11-23T02:57:18.142Z,16.93
2022-11-23T02:59:45.979Z,16.00
2022-11-23T03:02:15.057Z,17.20
2022-11-23T03:04:42.718Z,17.50
2022-11-23T03:07:10.423Z,17.93
2022-11-23T03:09:38.182Z,15.53
2022-11-23T03:12:06.223Z,16.77
2022-11-23T03:14:34.020Z,17.50
2022-11-23T03:17:01.800Z,16.13
2022-11-23T03:19:31.318Z,17.07
2022-11-23T03:21:59.284Z,14.40
2022-11-23T03:24:27.116Z,17.00
2022-11-23T03:26:54.825Z,18.27
2022-11-23T03:29:26.281Z,17.20
2022-11-23T03:31:54.040Z,16.87
2022-11-23T03:34:21.787Z,17.17
2022-11-23T03:36:50.983Z,17.20
2022-11-23T03:39:19.029Z,17.33
2022-11-23T03:41:47.023Z,14.87
2022-11-23T03:44:14.715Z,17.90
2022-11-23T03:47:04.962Z,17.87
2022-11-23T03:49:31.287Z,16.77
2022-11-23T03:52:00.511Z,17.03
2022-11-23T03:54:28.227Z,16.90
2022-11-23T03:56:55.924Z,16.07
2022-11-23T03:59:23.606Z,16.40
2022-11-23T04:01:51.344Z,16.83
2022-11-23T04:04:20.001Z,16.63
2022-11-23T04:06:47.692Z,17.03
2022-11-23T04:09:16.924Z,16.10
2022-11-23T04:11:44.619Z,15.67
2022-11-23T04:14:12.309Z,16.40
2022-11-23T04:16:40.088Z,15.20
2022-11-23T04:19:07.859Z,15.13
2022-11-23T04:21:35.699Z,16.20
2022-11-23T04:24:03.599Z,16.30
2022-11-23T04:26:32.690Z,16.27
2022-11-23T04:29:00.501Z,15.90
2022-11-23T04:31:28.215Z,16.50
2022-11-23T04:33:56.189Z,16.83
2022-11-23T04:36:23.982Z,15.53
2022-11-23T04:38:51.670Z,14.23
2022-11-23T04:41:19.445Z,15.53
2022-11-23T04:43:50.420Z,14.23
2022-11-23T04:46:18.447Z,14.87
2022-11-23T04:48:46.348Z,13.97
2022-11-23T04:51:14.177Z,13.83
2022-11-23T04:53:41.890Z,13.80
2022-11-23T04:56:09.814Z,14.33
2022-11-23T04:58:37.683Z,14.27
2022-11-23T05:01:07.332Z,13.53
2022-11-23T05:03:36.030Z,14.87
2022-11-23T05:06:04.922Z,12.80
2022-11-23T05:08:33.289Z,13.17
2022-11-23T05:11:01.194Z,11.20
2022-11-23T05:13:28.988Z,12.27
2022-11-23T05:15:56.922Z,12.03
2022-11-23T05:18:26.132Z,10.87
2022-11-23T05:20:53.849Z,11.30
2022-11-23T05:23:21.701Z,10.70
2022-11-23T05:25:49.386Z,10.60
2022-11-23T05:28:39.587Z,12.17
2022-11-23T05:31:08.122Z,12.73
2022-11-23T05:33:37.292Z,11.40
2022-11-23T05:36:05.379Z,10.80
2022-11-23T05:38:33.223Z,10.87
2022-11-23T05:41:01.051Z,11.20
2022-11-23T05:43:28.749Z,9.87
2022-11-23T05:45:59.556Z,10.83
2022-11-23T05:48:27.615Z,10.97
2022-11-23T05:51:00.910Z,11.50
2022-11-23T05:53:32.999Z,9.60
2022-11-23T05:56:01.532Z,10.40
2022-11-23T05:58:30.060Z,10.37
2022-11-23T06:00:59.835Z,9.20
2022-11-23T06:03:27.656Z,10.17
2022-11-23T06:05:56.794Z,9.93
2022-11-23T06:08:24.555Z,10.00
2022-11-23T06:10:52.244Z,9.60
2022-11-23T06:13:19.945Z,10.80
2022-11-23T06:15:47.714Z,9.43
2022-11-23T06:18:15.799Z,9.63
2022-11-23T06:20:43.529Z,10.10
2022-11-23T06:23:12.771Z,9.80
2022-11-23T06:25:40.654Z,10.37
2022-11-23T06:28:08.587Z,9.47
2022-11-23T06:30:36.362Z,10.47
2022-11-23T06:33:05.389Z,9.83
2022-11-23T06:35:33.208Z,10.53
2022-11-23T06:38:01.033Z,10.40
2022-11-23T06:40:30.121Z,10.90
2022-11-23T06:43:00.056Z,10.37
2022-11-23T06:45:28.228Z,10.23
2022-11-23T06:47:57.180Z,10.37
2022-11-23T06:50:24.976Z,10.77
2022-11-23T06:52:56.586Z,11.50
2022-11-23T06:55:24.623Z,9.67
2022-11-23T06:57:53.806Z,11.53
2022-11-23T07:00:21.795Z,10.60
2022-11-23T07:02:53.345Z,9.97
2022-11-23T07:05:21.179Z,10.10
2022-11-23T07:07:49.337Z,9.60
2022-11-23T07:10:17.965Z,8.83
2022-11-23T07:12:46.176Z,8.70
2022-11-23T07:15:15.350Z,9.63
2022-11-23T07:17:44.438Z,9.13
2022-11-23T07:20:13.739Z,8.93
2022-11-23T07:22:41.647Z,9.23
2022-11-23T07:25:11.451Z,8.73
2022-11-23T07:27:39.320Z,9.40
2022-11-23T07:30:08.494Z,8.60
2022-11-23T07:32:37.712Z,9.00
2022-11-23T07:35:06.139Z,8.83
2022-11-23T07:37:33.942Z,8.90
2022-11-23T07:40:02.052Z,8.33
2022-11-23T07:42:34.485Z,7.87
2022-11-23T07:45:04.005Z,7.80
2022-11-23T07:47:32.166Z,7.63
2022-11-23T07:50:01.258Z,7.90
2022-11-23T07:52:29.015Z,7.67
2022-11-23T07:54:56.888Z,7.07
2022-11-23T07:57:24.624Z,6.37
2022-11-23T07:59:52.300Z,7.10
2022-11-23T08:02:20.080Z,7.10
2022-11-23T08:04:48.191Z,7.87
2022-11-23T08:07:17.328Z,6.83
2022-11-23T08:09:45.030Z,7.07
2022-11-23T08:12:12.713Z,6.40
2022-11-23T08:14:40.351Z,6.90
2022-11-23T08:17:08.714Z,6.40
2022-11-23T08:19:36.366Z,6.90
2022-11-23T08:22:04.067Z,6.00
2022-11-23T08:24:33.410Z,6.07
2022-11-23T08:27:01.785Z,6.50
2022-11-23T08:29:30.814Z,5.50
2022-11-23T08:31:58.528Z,5.97
2022-11-23T08:34:26.612Z,5.93
2022-11-23T08:36:54.293Z,6.30
2022-11-23T08:39:21.995Z,5.10
2022-11-23T08:41:51.107Z,4.87
2022-11-23T08:44:18.807Z,5.63
2022-11-23T08:46:46.516Z,4.63
2022-11-23T08:49:14.228Z,5.27
2022-11-23T08:51:47.017Z,4.50
2022-11-23T08:54:17.531Z,4.43
2022-11-23T08:56:45.206Z,4.87
2022-11-23T08:59:14.299Z,4.97
2022-11-23T09:01:42.107Z,4.37
2022-11-23T09:04:09.893Z,4.30
2022-11-23T09:06:38.034Z,4.47
2022-11-23T09:09:05.733Z,4.03
2022-11-23T09:11:33.448Z,4.33
2022-11-23T09:14:01.318Z,4.40
2022-11-23T09:16:33.851Z,4.00
2022-11-23T09:19:02.399Z,4.10
2022-11-23T09:21:33.379Z,4.43
2022-11-23T09:24:01.163Z,3.93
2022-11-23T09:26:30.530Z,4.10
2022-11-23T09:28:58.281Z,4.83
2022-11-23T09:31:28.821Z,3.80
2022-11-23T09:33:58.012Z,4.10
2022-11-23T09:36:26.206Z,3.47
2022-11-23T09:38:57.600Z,3.47
2022-11-23T09:41:44.705Z,3.93
2022-11-23T09:44:20.498Z,3.30
2022-11-23T09:47:05.218Z,3.13
2022-11-23T09:49:41.136Z,3.27
2022-11-23T09:52:17.780Z,3.17
2022-11-23T09:54:47.414Z,3.00
2022-11-23T09:57:19.268Z,3.10
2022-11-23T09:59:53.613Z,2.90
2022-11-23T10:02:24.206Z,2.90
2022-11-23T10:04:54.639Z,3.03
2022-11-23T10:07:40.938Z,3.27
2022-11-23T10:10:22.621Z,3.50
2022-11-23T10:13:00.471Z,3.07
2022-11-23T10:15:32.913Z,3.83
2022-11-23T10:18:19.211Z,8.13
2022-11-23T10:21:13.479Z,14.63
2022-11-23T10:23:52.876Z,11.73
2022-11-23T10:26:22.516Z,12.73
2022-11-23T10:28:51.130Z,15.17
2022-11-23T10:31:20.481Z,12.67
2022-11-23T10:33:59.221Z,15.53
2022-11-23T10:36:28.349Z,5.43
2022-11-23T10:38:59.448Z,4.10
2022-11-23T10:41:27.675Z,5.37
2022-11-23T10:44:04.590Z,31.93
2022-11-23T10:46:39.142Z,5.03
2022-11-23T10:49:16.364Z,3.90
2022-11-23T10:51:53.184Z,3.10
2022-11-23T10:54:27.697Z,5.40
2022-11-23T10:56:56.461Z,3.23
2022-11-23T10:59:35.967Z,5.23
2022-11-23T11:02:15.663Z,3.90
2022-11-23T11:04:43.709Z,4.23
2022-11-23T11:07:21.211Z,2.93
2022-11-23T11:09:53.571Z,2.80
2022-11-23T11:12:21.602Z,3.30
2022-11-23T11:15:11.016Z,2.83
2022-11-23T11:17:41.992Z,2.93
2022-11-23T11:20:32.378Z,3.10
2022-11-23T11:23:04.763Z,3.40
2022-11-23T11:25:35.602Z,3.23
2022-11-23T11:28:05.016Z,3.33
2022-11-23T11:30:45.070Z,3.40
2022-11-23T11:33:18.346Z,3.60
2022-11-23T11:35:50.398Z,3.50
2022-11-23T11:38:24.129Z,4.00
2022-11-23T11:40:53.609Z,3.70
2022-11-23T11:43:34.746Z,3.90
2022-11-23T11:46:28.407Z,16.43
2022-11-23T11:49:00.220Z,17.03
2022-11-23T11:51:33.459Z,4.00
2022-11-23T11:54:07.454Z,30.97
2022-11-23T11:56:40.306Z,11.67
2022-11-23T11:59:17.456Z,30.10
2022-11-23T12:01:54.405Z,10.37
2022-11-23T12:04:28.734Z,13.77
2022-11-23T12:07:06.707Z,6.53
2022-11-23T12:09:41.695Z,15.73
2022-11-23T12:12:15.899Z,36.40
2022-11-23T12:14:43.962Z,6.50
2022-11-23T12:17:34.500Z,4.80
2022-11-23T12:20:11.810Z,15.73
2022-11-23T12:22:53.741Z,2.40
2022-11-23T12:25:30.823Z,7.40
2022-11-23T12:28:07.221Z,5.20
2022-11-23T12:30:47.866Z,5.83
2022-11-23T12:33:44.752Z,3.00
2022-11-23T12:36:33.740Z,5.23
2022-11-23T12:39:09.284Z,3.37
2022-11-23T12:41:45.341Z,2.83
2022-11-23T12:44:44.339Z,3.00
2022-11-23T12:47:24.006Z,2.57
2022-11-23T12:49:54.989Z,2.93
2022-11-23T12:52:44.429Z,2.73
2022-11-23T12:55:21.581Z,2.47
2022-11-23T12:57:57.578Z,2.80
2022-11-23T13:00:28.851Z,2.60
2022-11-23T13:03:50.528Z,2.80
2022-11-23T13:07:26.873Z,3.17
2022-11-23T13:10:13.964Z,3.00
2022-11-23T13:13:00.910Z,3.27
2022-11-23T13:15:47.906Z,3.87
2022-11-23T13:18:31.433Z,15.60
2022-11-23T13:21:14.367Z,4.60
2022-11-23T13:23:42.130Z,3.53
2022-11-23T13:26:15.508Z,3.43
2022-11-23T13:28:44.996Z,3.37
2022-11-23T13:31:27.588Z,3.20
2022-11-23T13:33:56.986Z,3.33
2022-11-23T13:37:15.552Z,4.97
2022-11-23T13:40:03.844Z,3.60
2022-11-23T13:42:35.454Z,2.43
2022-11-23T13:45:27.311Z,2.67
2022-11-23T13:48:55.034Z,3.43
2022-11-23T13:51:11.517Z,2.97
2022-11-23T13:53:41.677Z,3.87
2022-11-23T13:56:26.826Z,3.57
2022-11-23T13:58:56.744Z,3.37
2022-11-23T14:02:23.660Z,4.93
2022-11-23T14:04:51.544Z,3.47
2022-11-23T14:07:24.732Z,5.17
2022-11-23T14:09:56.016Z,3.20
2022-11-23T14:12:32.518Z,2.87
2022-11-23T14:15:09.521Z,3.10
2022-11-23T14:18:12.837Z,3.40
2022-11-23T14:21:08.727Z,3.20
2022-11-23T14:24:04.635Z,3.23
2022-11-23T14:26:37.507Z,2.87
2022-11-23T14:29:27.391Z,3.33
2022-11-23T14:32:10.342Z,3.40
2022-11-23T14:34:51.852Z,3.33
2022-11-23T14:37:32.206Z,3.53
2022-11-23T14:40:08.529Z,3.30
2022-11-23T14:42:42.745Z,5.17
2022-11-23T14:45:16.008Z,2.90
2022-11-23T14:47:43.969Z,3.40
2022-11-23T14:50:34.531Z,3.20
2022-11-23T14:53:02.603Z,3.37
2022-11-23T14:55:32.753Z,4.00
2022-11-23T14:58:04.467Z,3.33
2022-11-23T15:00:37.978Z,3.27
2022-11-23T15:03:34.589Z,3.27
2022-11-23T15:06:07.949Z,3.43
2022-11-23T15:08:45.342Z,3.07
2022-11-23T15:11:17.837Z,3.27
2022-11-23T15:13:47.882Z,3.10
2022-11-23T15:16:17.745Z,3.70
2022-11-23T15:18:46.011Z,3.23
2022-11-23T15:21:26.892Z,3.50
2022-11-23T15:23:57.426Z,3.80
2022-11-23T15:26:47.233Z,3.60
2022-11-23T15:29:37.660Z,3.87
2022-11-23T15:32:32.002Z,4.47
2022-11-23T15:35:02.659Z,3.67
2022-11-23T15:37:32.531Z,3.77
2022-11-23T15:40:00.906Z,3.80
2022-11-23T15:42:29.949Z,3.77
2022-11-23T15:44:57.701Z,3.93
2022-11-23T15:47:28.495Z,4.73
2022-11-23T15:50:02.339Z,6.93
2022-11-23T15:52:36.533Z,13.83
2022-11-23T15:55:09.297Z,9.47
2022-11-23T15:57:39.033Z,8.13
2022-11-23T16:00:09.447Z,10.87
2022-11-23T16:02:37.864Z,15.43
2022-11-23T16:05:13.410Z,11.20
2022-11-23T16:07:54.363Z,11.30
2022-11-23T16:10:24.593Z,6.50
2022-11-23T16:12:54.042Z,7.27
2022-11-23T16:15:33.850Z,4.87
2022-11-23T16:18:02.368Z,5.43
2022-11-23T16:20:31.122Z,4.60
2022-11-23T16:23:01.717Z,5.60
2022-11-23T16:25:32.368Z,5.90
2022-11-23T16:28:00.726Z,4.97
2022-11-23T16:30:36.275Z,8.33
2022-11-23T16:33:04.268Z,7.57
2022-11-23T16:35:31.977Z,6.20
2022-11-23T16:38:01.040Z,7.37
2022-11-23T16:40:28.693Z,6.83
2022-11-23T16:42:57.278Z,6.87
2022-11-23T16:45:25.375Z,7.53
2022-11-23T16:47:55.268Z,7.43
2022-11-23T16:50:23.165Z,7.73
2022-11-23T16:52:51.083Z,7.37
2022-11-23T16:55:20.212Z,6.10
2022-11-23T16:57:48.733Z,5.73
2022-11-23T17:00:19.000Z,7.43
2022-11-23T17:02:47.085Z,7.03
2022-11-23T17:05:16.497Z,7.60
2022-11-23T17:07:44.425Z,7.57
2022-11-23T17:10:13.067Z,7.87
2022-11-23T17:12:50.627Z,8.60
2022-11-23T17:15:20.219Z,8.27
2022-11-23T17:17:47.988Z,8.30
2022-11-23T17:20:16.635Z,8.73
2022-11-23T17:22:44.837Z,8.07
2022-11-23T17:25:15.210Z,7.93
2022-11-23T17:27:47.055Z,7.93
2022-11-23T17:30:17.633Z,8.50
2022-11-23T17:32:45.652Z,9.70
2022-11-23T17:35:14.077Z,9.20
2022-11-23T17:37:42.099Z,9.60
2022-11-23T17:40:15.709Z,8.00
2022-11-23T17:42:45.165Z,8.03
2022-11-23T17:45:13.064Z,8.97
2022-11-23T17:47:42.910Z,8.53
2022-11-23T17:50:13.811Z,9.00
2022-11-23T17:52:44.549Z,9.03
2022-11-23T17:55:13.585Z,10.27
2022-11-23T17:57:41.918Z,8.53
2022-11-23T18:00:17.367Z,8.73
2022-11-23T18:02:45.442Z,8.13
2022-11-23T18:05:18.008Z,8.73
2022-11-23T18:07:49.157Z,7.63
2022-11-23T18:10:17.554Z,8.13
2022-11-23T18:12:46.362Z,7.73
2022-11-23T18:15:16.002Z,7.50
2022-11-23T18:17:44.133Z,7.60
2022-11-23T18:20:13.475Z,7.63
2022-11-23T18:22:41.404Z,8.27
2022-11-23T18:25:10.197Z,7.43
2022-11-23T18:27:37.863Z,7.20
2022-11-23T18:30:07.150Z,7.60
2022-11-23T18:32:36.448Z,7.60
2022-11-23T18:35:05.164Z,7.57
2022-11-23T18:37:33.021Z,8.20
2022-11-23T18:40:00.937Z,7.57
2022-11-23T18:42:28.871Z,7.10
2022-11-23T18:44:56.739Z,7.80
2022-11-23T18:47:25.166Z,7.77
2022-11-23T18:49:54.579Z,7.10
2022-11-23T18:52:22.391Z,6.10
2022-11-23T18:54:50.124Z,6.30
2022-11-23T18:57:18.362Z,5.90
2022-11-23T19:00:02.169Z,5.90
2022-11-23T19:02:30.278Z,5.37
2022-11-23T19:05:00.036Z,5.90
2022-11-23T19:07:27.931Z,6.20
2022-11-23T19:09:55.833Z,5.80
2022-11-23T19:12:23.753Z,5.50
2022-11-23T19:14:51.490Z,5.03
2022-11-23T19:17:19.310Z,5.33
2022-11-23T19:19:47.390Z,4.60
2022-11-23T19:22:25.737Z,5.17
2022-11-23T19:24:53.487Z,4.67
2022-11-23T19:27:24.855Z,5.33
2022-11-23T19:29:54.198Z,5.40
2022-11-23T19:32:21.906Z,5.50
2022-11-23T19:34:49.656Z,5.50
2022-11-23T19:37:18.862Z,5.50
2022-11-23T19:39:46.882Z,5.10
2022-11-23T19:42:14.729Z,5.43
2022-11-23T19:44:42.424Z,4.93
2022-11-23T19:47:15.350Z,4.97
2022-11-23T19:49:45.385Z,5.17
2022-11-23T19:52:13.148Z,5.03
2022-11-23T19:54:42.365Z,4.37
2022-11-23T19:57:10.464Z,4.93
2022-11-23T19:59:38.161Z,4.67
2022-11-23T20:02:06.073Z,4.60
2022-11-23T20:04:33.946Z,4.67
2022-11-23T20:07:01.781Z,4.43
2022-11-23T20:09:29.593Z,4.90
2022-11-23T20:11:58.730Z,4.60
2022-11-23T20:14:26.466Z,4.97
2022-11-23T20:16:55.893Z,4.57
2022-11-23T20:19:23.582Z,4.87
2022-11-23T20:21:51.283Z,4.50
2022-11-23T20:24:18.952Z,4.30
2022-11-23T20:26:46.729Z,4.67
2022-11-23T20:29:16.035Z,4.50
2022-11-23T20:31:43.776Z,4.50
2022-11-23T20:34:15.514Z,4.57
2022-11-23T20:36:46.253Z,4.63
2022-11-23T20:39:16.197Z,4.43
2022-11-23T20:41:45.031Z,4.23
2022-11-23T20:44:15.514Z,4.00
2022-11-23T20:49:31.472Z,4.63
2022-11-23T20:51:59.642Z,4.80
2022-11-23T20:54:27.658Z,4.00
2022-11-23T20:56:55.437Z,4.20
2022-11-23T20:59:24.683Z,4.23
2022-11-23T21:01:52.650Z,3.60
2022-11-23T21:04:20.482Z,4.67
2022-11-23T21:06:48.263Z,4.10
2022-11-23T21:09:17.056Z,4.07
2022-11-23T21:12:02.421Z,4.10
2022-11-23T21:14:33.121Z,3.77
2022-11-23T21:17:01.689Z,3.60
2022-11-23T21:19:31.037Z,3.40
2022-11-23T21:22:00.107Z,3.80
2022-11-23T21:24:29.346Z,3.50
2022-11-23T21:26:57.372Z,3.43
2022-11-23T21:29:26.076Z,3.80
2022-11-23T21:31:55.172Z,3.50
2022-11-23T21:34:24.696Z,3.63
2022-11-23T21:36:53.341Z,3.30
2022-11-23T21:39:21.838Z,2.83
2022-11-23T21:41:50.900Z,4.03
2022-11-23T21:44:19.375Z,3.40
2022-11-23T21:46:47.325Z,3.87
2022-11-23T21:49:16.673Z,3.07
2022-11-23T21:51:45.615Z,3.30
2022-11-23T21:54:16.008Z,3.10
2022-11-23T21:56:44.785Z,3.27
2022-11-23T21:59:12.858Z,3.17
2022-11-23T22:01:40.700Z,2.77
2022-11-23T22:04:10.542Z,2.97
2022-11-23T22:06:42.123Z,2.90
2022-11-23T22:09:11.661Z,3.13
2022-11-23T22:11:41.196Z,3.10
2022-11-23T22:14:12.061Z,3.20
2022-11-23T22:16:41.247Z,3.20
2022-11-23T22:19:11.702Z,3.80
2022-11-23T22:21:41.997Z,3.90
2022-11-23T22:24:12.911Z,3.83
2022-11-23T22:26:40.817Z,3.27
2022-11-23T22:29:10.720Z,3.87
2022-11-23T22:31:39.049Z,3.47
2022-11-23T22:34:09.248Z,3.30
2022-11-23T22:36:37.085Z,3.37
2022-11-23T22:39:08.123Z,3.50
2022-11-23T22:41:37.506Z,3.13
2022-11-23T22:44:06.906Z,2.97
2022-11-23T22:46:34.759Z,3.00
2022-11-23T22:49:02.999Z,3.37
2022-11-23T22:51:31.223Z,3.07
2022-11-23T22:54:00.663Z,3.07
2022-11-23T22:56:31.039Z,2.90
2022-11-23T22:58:59.350Z,3.43
2022-11-23T23:01:30.367Z,3.47
2022-11-23T23:04:00.462Z,3.17
2022-11-23T23:06:30.206Z,2.83
2022-11-23T23:08:59.216Z,2.77
2022-11-23T23:11:30.222Z,3.57
2022-11-23T23:13:58.712Z,2.90
2022-11-23T23:16:27.633Z,3.00
2022-11-23T23:18:56.419Z,2.50
2022-11-23T23:21:24.699Z,3.70
2022-11-23T23:23:54.150Z,2.97
2022-11-23T23:26:23.554Z,3.10
2022-11-23T23:28:56.415Z,3.20
2022-11-23T23:31:24.799Z,3.30
2022-11-23T23:33:53.481Z,3.03
2022-11-23T23:36:22.736Z,3.50
2022-11-23T23:38:50.863Z,3.70
2022-11-23T23:41:19.128Z,3.20
2022-11-23T23:43:48.053Z,3.47
2022-11-23T23:46:17.816Z,3.63
2022-11-23T23:48:45.892Z,3.23
2022-11-23T23:51:16.045Z,3.73
2022-11-23T23:53:44.692Z,3.27
2022-11-23T23:56:15.168Z,3.60
2022-11-23T23:58:43.410Z,3.23
